Terminal Aerodrome Forecast
Issued by NWS Austin/San Antonio, TX

Home | Current Version | Previous Version | Text Only | Print | Product List | Glossary On
Versions: 1 2 3 4 5 6 7 8 9 10 11 12 13 14 15 16 17 18 19 20
000
FTUS44 KEWX 311100
TAFAUS
TAF
KAUS 311127Z 3112/0118 16005KT P6SM BKN020
     FM311600 20006KT P6SM BKN035
     FM312100 01008KT P6SM SCT050 BKN200 PROB30 3121/0101 VRB35KT
      5SM TSRA BKN035CB
     FM010300 36006KT P6SM BKN035=

USA.gov is the U.S. government's official web portal to all federal, state and local government web resources and services.